Time;durP1;ratioP1;P1;durP2;ratioP2;P2;SDS_P1;SDS_P2;PMS_P1;PMS_P2;Temp;Humidity;BMP_temperature;BMP_pressure;BME280_temperature;BME280_humidity;BME280_pressure;Samples;Min_cycle;Max_cycle;Signal;HPM_P1;HPM_P2
2023/04/20 00:00:56;;;;;;;;;;;;;;;;;;5048397;28;19916;-76
2023/04/20 00:03:43;;;;;;;;;;;;;;;;;;5059592;28;19924;-76
2023/04/20 00:06:31;;;;;;;;;;;;;;;;;;5063580;28;19924;-76
2023/04/20 00:09:17;;;;;;;;;;;;;;;;;;5055038;28;19921;-76
2023/04/20 00:12:04;;;;;;;;;;;;;;;;;;5040171;28;19917;-76
2023/04/20 00:14:50;;;;;;;;;;;;;;;;;;5046907;28;19913;-75
2023/04/20 00:17:38;;;;;;;;;;;;;;;;;;5064844;28;19924;-76
2023/04/20 00:20:24;;;;;;;;;;;;;;;;;;5063576;28;19916;-76
2023/04/20 00:23:11;;;;;;;;;;;;;;;;;;5063410;28;19920;-77
2023/04/20 00:25:57;;;;;;;;;;;;;;;;;;5057571;28;19916;-75
2023/04/20 00:28:44;;;;;;;;;;;;;;;;;;5044777;28;20585;-76
2023/04/20 00:31:30;;;;;;;;;;;;;;;;;;5062367;28;19926;-76
2023/04/20 00:34:17;;;;;;;;;;;;;;;;;;5062158;28;19917;-76
2023/04/20 00:37:03;;;;;;;;;;;;;;;;;;5066402;28;19924;-76
2023/04/20 00:39:50;;;;;;;;;;;;;;;;;;5079756;28;19922;-76
2023/04/20 00:42:36;;;;;;;;;;;;;;;;;;5087689;28;20391;-76
2023/04/20 00:45:23;;;;;;;;;;;;;;;;;;5091227;28;19917;-76
2023/04/20 00:48:09;;;;;;;;;;;;;;;;;;5073337;28;19926;-75
2023/04/20 00:50:56;;;;;;;;;;;;;;;;;;5083493;28;19912;-76
2023/04/20 00:53:42;;;;;;;;;;;;;;;;;;5085370;28;19915;-76
2023/04/20 00:56:29;;;;;;;;;;;;;;;;;;5061944;28;19936;-76
2023/04/20 00:59:15;;;;;;;;;;;;;;;;;;5084803;28;20283;-77
2023/04/20 01:02:02;;;;;;;;;;;;;;;;;;5085856;28;19920;-75
2023/04/20 01:04:48;;;;;;;;;;;;;;;;;;5087684;28;20386;-76
2023/04/20 01:07:35;;;;;;;;;;;;;;;;;;5078858;28;19916;-76
2023/04/20 01:10:22;;;;;;;;;;;;;;;;;;5087670;28;19916;-75
2023/04/20 01:13:08;;;;;;;;;;;;;;;;;;5090703;28;19926;-75
2023/04/20 01:15:55;;;;;;;;;;;;;;;;;;5083858;28;20275;-76
2023/04/20 01:18:42;;;;;;;;;;;;;;;;;;5070848;28;19928;-77
2023/04/20 01:21:30;;;;;;;;;;;;;;;;;;5086975;28;19924;-77
2023/04/20 01:24:16;;;;;;;;;;;;;;;;;;5086597;28;20374;-77
2023/04/20 01:27:02;;;;;;;;;;;;;;;;;;5083435;28;19923;-79
2023/04/20 01:29:49;;;;;;;;;;;;;;;;;;5082907;28;20379;-77
2023/04/20 01:32:35;;;;;;;;;;;;;;;;;;5074501;28;19928;-77
2023/04/20 01:35:22;;;;;;;;;;;;;;;;;;5064259;28;20598;-75
2023/04/20 01:38:08;;;;;;;;;;;;;;;;;;5066515;28;19935;-76
2023/04/20 01:40:55;;;;;;;;;;;;;;;;;;5061402;28;19936;-76
2023/04/20 01:43:41;;;;;;;;;;;;;;;;;;5066290;28;19921;-76
2023/04/20 01:46:28;;;;;;;;;;;;;;;;;;5067628;28;19916;-76
2023/04/20 01:49:14;;;;;;;;;;;;;;;;;;5064004;28;19924;-76
2023/04/20 01:52:01;;;;;;;;;;;;;;;;;;5066276;28;19913;-76
2023/04/20 01:54:47;;;;;;;;;;;;;;;;;;5066328;28;19928;-76
2023/04/20 01:57:34;;;;;;;;;;;;;;;;;;5064248;28;20500;-76
2023/04/20 02:00:20;;;;;;;;;;;;;;;;;;5063531;28;19925;-75
2023/04/20 02:03:07;;;;;;;;;;;;;;;;;;5061992;28;21102;-76
2023/04/20 02:05:53;;;;;;;;;;;;;;;;;;5065872;28;19939;-76
2023/04/20 02:08:40;;;;;;;;;;;;;;;;;;5065929;28;19924;-76
2023/04/20 02:11:26;;;;;;;;;;;;;;;;;;5066243;28;19923;-76
2023/04/20 02:14:13;;;;;;;;;;;;;;;;;;5066121;28;20299;-77
2023/04/20 02:16:59;;;;;;;;;;;;;;;;;;5066211;28;19932;-76
2023/04/20 02:19:46;;;;;;;;;;;;;;;;;;5064502;28;19921;-76
2023/04/20 02:22:33;;;;;;;;;;;;;;;;;;5067281;28;19928;-76
2023/04/20 02:25:20;;;;;;;;;;;;;;;;;;5065481;28;19924;-76
2023/04/20 02:28:06;;;;;;;;;;;;;;;;;;5053894;28;19947;-78
2023/04/20 02:30:53;;;;;;;;;;;;;;;;;;5065999;28;19963;-76
2023/04/20 02:33:39;;;;;;;;;;;;;;;;;;5065902;28;19932;-76
2023/04/20 02:36:27;;;;;;;;;;;;;;;;;;5056612;28;19916;-75
2023/04/20 02:39:13;;;;;;;;;;;;;;;;;;5062429;28;19927;-75
2023/04/20 02:42:00;;;;;;;;;;;;;;;;;;5063826;28;20544;-74
2023/04/20 02:44:46;;;;;;;;;;;;;;;;;;5047837;28;19921;-75
2023/04/20 02:47:33;;;;;;;;;;;;;;;;;;5065171;28;19917;-75
2023/04/20 02:50:20;;;;;;;;;;;;;;;;;;5072372;28;19947;-75
2023/04/20 02:53:06;;;;;;;;;;;;;;;;;;5048059;28;19924;-76
2023/04/20 02:55:53;;;;;;;;;;;;;;;;;;5055637;28;19923;-76
2023/04/20 02:58:39;;;;;;;;;;;;;;;;;;5042493;28;19936;-75
2023/04/20 03:01:26;;;;;;;;;;;;;;;;;;5061792;28;19917;-76
2023/04/20 03:04:12;;;;;;;;;;;;;;;;;;5064645;28;20390;-76
2023/04/20 03:07:00;;;;;;;;;;;;;;;;;;5051723;28;19924;-76
2023/04/20 03:09:46;;;;;;;;;;;;;;;;;;5064031;28;19913;-76
2023/04/20 03:12:33;;;;;;;;;;;;;;;;;;5064032;28;19943;-76
2023/04/20 03:15:20;;;;;;;;;;;;;;;;;;5074380;28;19926;-76
2023/04/20 03:18:06;;;;;;;;;;;;;;;;;;5064501;28;20273;-77
2023/04/20 03:20:53;;;;;;;;;;;;;;;;;;5065114;28;19924;-76
2023/04/20 03:23:39;;;;;;;;;;;;;;;;;;5064575;28;19927;-76
2023/04/20 03:26:26;;;;;;;;;;;;;;;;;;5038140;28;19923;-76
2023/04/20 03:29:13;;;;;;;;;;;;;;;;;;5066137;28;19920;-76
2023/04/20 03:31:59;;;;;;;;;;;;;;;;;;5065876;28;19928;-75
2023/04/20 03:34:46;;;;;;;;;;;;;;;;;;5072166;28;19928;-76
2023/04/20 03:37:35;;;;;;;;;;;;;;;;;;5081888;28;20494;-76
2023/04/20 03:40:21;;;;;;;;;;;;;;;;;;5083967;28;20398;-76
2023/04/20 03:43:08;;;;;;;;;;;;;;;;;;5083720;28;19942;-75
2023/04/20 03:45:54;;;;;;;;;;;;;;;;;;5079227;28;20379;-76
2023/04/20 03:48:40;;;;;;;;;;;;;;;;;;5082881;28;21163;-75
2023/04/20 03:51:27;;;;;;;;;;;;;;;;;;5086276;28;19916;-76
2023/04/20 03:54:14;;;;;;;;;;;;;;;;;;5077873;28;19975;-76
2023/04/20 03:57:01;;;;;;;;;;;;;;;;;;5068908;28;19924;-76
2023/04/20 03:59:47;;;;;;;;;;;;;;;;;;5079599;28;19925;-76
2023/04/20 04:02:34;;;;;;;;;;;;;;;;;;5080945;28;19923;-76
2023/04/20 04:05:20;;;;;;;;;;;;;;;;;;5091323;28;20299;-75
2023/04/20 04:08:06;;;;;;;;;;;;;;;;;;5070453;28;19912;-75
2023/04/20 04:10:53;;;;;;;;;;;;;;;;;;5077946;28;19978;-76
2023/04/20 04:13:39;;;;;;;;;;;;;;;;;;5085048;28;20272;-76
2023/04/20 04:16:26;;;;;;;;;;;;;;;;;;5069713;28;19916;-76
2023/04/20 04:19:12;;;;;;;;;;;;;;;;;;5088418;28;19920;-76
2023/04/20 04:21:59;;;;;;;;;;;;;;;;;;5084216;28;19922;-76
2023/04/20 04:24:45;;;;;;;;;;;;;;;;;;5084601;28;20371;-76
2023/04/20 04:27:33;;;;;;;;;;;;;;;;;;5076222;28;19923;-76
2023/04/20 04:30:20;;;;;;;;;;;;;;;;;;5086118;28;19931;-77
2023/04/20 04:33:06;;;;;;;;;;;;;;;;;;5062224;28;19929;-76
2023/04/20 04:35:54;;;;;;;;;;;;;;;;;;5067065;28;19920;-76
2023/04/20 04:38:41;;;;;;;;;;;;;;;;;;5066799;28;19924;-76
2023/04/20 04:41:28;;;;;;;;;;;;;;;;;;5065622;28;19942;-76
2023/04/20 04:44:15;;;;;;;;;;;;;;;;;;5057079;28;19917;-77
2023/04/20 04:47:01;;;;;;;;;;;;;;;;;;5064669;28;19928;-76
2023/04/20 04:49:48;;;;;;;;;;;;;;;;;;5067507;28;19923;-77
2023/04/20 04:52:37;;;;;;;;;;;;;;;;;;5068841;28;19923;-77
2023/04/20 04:55:23;;;;;;;;;;;;;;;;;;5050442;28;19928;-77
2023/04/20 04:58:10;;;;;;;;;;;;;;;;;;5051883;28;20307;-77
2023/04/20 05:00:56;;;;;;;;;;;;;;;;;;5066098;28;19963;-77
2023/04/20 05:03:43;;;;;;;;;;;;;;;;;;5066841;28;19916;-77
2023/04/20 05:06:30;;;;;;;;;;;;;;;;;;5065576;28;19920;-77
2023/04/20 05:09:16;;;;;;;;;;;;;;;;;;5053509;28;19916;-78
2023/04/20 05:12:03;;;;;;;;;;;;;;;;;;5036724;28;20281;-76
2023/04/20 05:14:49;;;;;;;;;;;;;;;;;;5054084;28;20310;-75
2023/04/20 05:17:36;;;;;;;;;;;;;;;;;;5066791;28;19924;-75
2023/04/20 05:20:22;;;;;;;;;;;;;;;;;;5064176;28;20556;-76
2023/04/20 05:23:09;;;;;;;;;;;;;;;;;;5065461;28;19916;-76
2023/04/20 05:25:55;;;;;;;;;;;;;;;;;;5064502;28;20284;-76
2023/04/20 05:28:42;;;;;;;;;;;;;;;;;;5066377;28;19916;-76
2023/04/20 05:31:29;;;;;;;;;;;;;;;;;;5068498;28;20446;-75
2023/04/20 05:34:16;;;;;;;;;;;;;;;;;;5071412;28;20322;-76
2023/04/20 05:37:02;;;;;;;;;;;;;;;;;;5085964;28;19934;-76
2023/04/20 05:39:49;;;;;;;;;;;;;;;;;;5081779;28;19930;-76
2023/04/20 05:42:35;;;;;;;;;;;;;;;;;;5081542;28;19999;-76
2023/04/20 05:45:22;;;;;;;;;;;;;;;;;;5066674;28;19920;-76
2023/04/20 05:48:09;;;;;;;;;;;;;;;;;;5085703;28;19916;-76
2023/04/20 05:50:56;;;;;;;;;;;;;;;;;;5072648;28;19923;-76
2023/04/20 05:53:42;;;;;;;;;;;;;;;;;;5086453;28;19917;-76
2023/04/20 05:56:29;;;;;;;;;;;;;;;;;;5086745;28;19920;-76
2023/04/20 05:59:16;;;;;;;;;;;;;;;;;;5077399;28;19931;-76
2023/04/20 06:02:02;;;;;;;;;;;;;;;;;;5064065;28;19959;-76
2023/04/20 06:04:48;;;;;;;;;;;;;;;;;;5068795;28;19923;-76
2023/04/20 06:07:35;;;;;;;;;;;;;;;;;;5087189;28;19916;-76
2023/04/20 06:10:22;;;;;;;;;;;;;;;;;;5056576;28;19924;-76
2023/04/20 06:13:08;;;;;;;;;;;;;;;;;;5095489;28;19923;-76
2023/04/20 06:15:55;;;;;;;;;;;;;;;;;;5084709;28;19994;-77
2023/04/20 06:18:41;;;;;;;;;;;;;;;;;;5075725;28;20381;-76
2023/04/20 06:21:27;;;;;;;;;;;;;;;;;;5069342;28;19928;-75
2023/04/20 06:24:14;;;;;;;;;;;;;;;;;;5084515;28;19923;-76
2023/04/20 06:27:01;;;;;;;;;;;;;;;;;;5077742;28;19919;-76
2023/04/20 06:29:49;;;;;;;;;;;;;;;;;;5086546;28;20284;-76
2023/04/20 06:32:36;;;;;;;;;;;;;;;;;;5084167;28;20576;-76
2023/04/20 06:35:23;;;;;;;;;;;;;;;;;;5087679;28;19926;-77
2023/04/20 06:38:09;;;;;;;;;;;;;;;;;;5086795;28;19932;-77
2023/04/20 06:41:00;;;;;;;;;;;;;;;;;;5085951;28;19939;-75
2023/04/20 06:43:47;;;;;;;;;;;;;;;;;;5071735;28;20304;-75
2023/04/20 06:46:33;;;;;;;;;;;;;;;;;;5090149;28;19920;-75
2023/04/20 06:49:20;;;;;;;;;;;;;;;;;;5085609;28;19923;-76
2023/04/20 06:52:06;;;;;;;;;;;;;;;;;;5070529;28;19916;-76
2023/04/20 06:54:53;;;;;;;;;;;;;;;;;;5085990;28;20295;-75
2023/04/20 06:57:42;;;;;;;;;;;;;;;;;;5071109;28;19924;-76
2023/04/20 07:00:29;;;;;;;;;;;;;;;;;;5086446;28;19920;-76
2023/04/20 07:03:17;;;;;;;;;;;;;;;;;;5086962;28;19923;-77
2023/04/20 07:06:04;;;;;;;;;;;;;;;;;;5086062;28;19920;-76
2023/04/20 07:08:50;;;;;;;;;;;;;;;;;;5074550;28;19920;-75
2023/04/20 07:11:37;;;;;;;;;;;;;;;;;;5097458;28;19927;-76
2023/04/20 07:14:23;;;;;;;;;;;;;;;;;;5070883;28;19920;-75
2023/04/20 07:17:09;;;;;;;;;;;;;;;;;;5084354;28;19938;-76
2023/04/20 07:19:57;;;;;;;;;;;;;;;;;;5074545;28;19923;-75
2023/04/20 07:22:43;;;;;;;;;;;;;;;;;;5069117;28;19920;-75
2023/04/20 07:25:33;;;;;;;;;;;;;;;;;;5085003;28;20140;-76
2023/04/20 07:28:19;;;;;;;;;;;;;;;;;;5075677;28;19920;-76
2023/04/20 07:31:06;;;;;;;;;;;;;;;;;;5084000;28;19916;-76
2023/04/20 07:33:52;;;;;;;;;;;;;;;;;;5053372;28;19923;-76
2023/04/20 07:36:39;;;;;;;;;;;;;;;;;;5083171;28;19916;-76
2023/04/20 07:39:27;;;;;;;;;;;;;;;;;;5086381;28;19924;-75
2023/04/20 07:42:14;;;;;;;;;;;;;;;;;;5080857;28;20093;-76
2023/04/20 07:45:00;;;;;;;;;;;;;;;;;;5078787;28;19920;-76
2023/04/20 07:47:50;;;;;;;;;;;;;;;;;;5074264;28;19923;-76
2023/04/20 07:50:36;;;;;;;;;;;;;;;;;;5086186;28;20466;-75
2023/04/20 07:53:23;;;;;;;;;;;;;;;;;;5083498;28;19922;-76
2023/04/20 07:56:09;;;;;;;;;;;;;;;;;;5067534;28;19927;-76
2023/04/20 07:58:55;;;;;;;;;;;;;;;;;;5072231;28;20387;-76
2023/04/20 08:01:42;;;;;;;;;;;;;;;;;;5088373;28;19923;-75
2023/04/20 08:04:28;;;;;;;;;;;;;;;;;;5087452;28;19931;-76
2023/04/20 08:07:15;;;;;;;;;;;;;;;;;;5088899;28;19923;-76
2023/04/20 08:10:02;;;;;;;;;;;;;;;;;;5094087;28;20287;-76
2023/04/20 08:12:48;;;;;;;;;;;;;;;;;;5083683;28;19916;-80
2023/04/20 08:15:35;;;;;;;;;;;;;;;;;;5089306;28;19920;-75
2023/04/20 08:18:21;;;;;;;;;;;;;;;;;;5080996;28;19974;-76
2023/04/20 08:21:08;;;;;;;;;;;;;;;;;;5085864;28;19916;-76
2023/04/20 08:23:54;;;;;;;;;;;;;;;;;;5087682;28;20458;-76
2023/04/20 08:26:41;;;;;;;;;;;;;;;;;;5089043;28;19916;-76
2023/04/20 08:29:27;;;;;;;;;;;;;;;;;;5087387;28;20479;-76
2023/04/20 08:32:14;;;;;;;;;;;;;;;;;;5067667;28;19936;-76
2023/04/20 08:35:00;;;;;;;;;;;;;;;;;;5062057;28;19927;-75
2023/04/20 08:37:47;;;;;;;;;;;;;;;;;;5068266;28;19920;-76
2023/04/20 08:40:33;;;;;;;;;;;;;;;;;;5066177;28;19925;-76
2023/04/20 08:43:20;;;;;;;;;;;;;;;;;;5068653;28;19939;-76
2023/04/20 08:46:07;;;;;;;;;;;;;;;;;;5066084;28;19991;-75
2023/04/20 08:48:56;;;;;;;;;;;;;;;;;;5068036;28;19923;-76
2023/04/20 08:51:43;;;;;;;;;;;;;;;;;;5068462;28;19920;-75
2023/04/20 08:54:37;;;;;;;;;;;;;;;;;;5080736;28;19917;-75
2023/04/20 08:57:23;;;;;;;;;;;;;;;;;;5032997;28;19951;-77
2023/04/20 09:00:10;;;;;;;;;;;;;;;;;;5043308;28;20395;-76
2023/04/20 09:03:00;;;;;;;;;;;;;;;;;;5064392;28;19912;-77
2023/04/20 09:05:47;;;;;;;;;;;;;;;;;;5020115;28;20400;-75
2023/04/20 09:08:33;;;;;;;;;;;;;;;;;;5079706;28;19917;-75
2023/04/20 09:11:20;;;;;;;;;;;;;;;;;;5066831;28;19924;-76
2023/04/20 09:14:08;;;;;;;;;;;;;;;;;;5060062;28;19916;-76
2023/04/20 09:17:03;;;;;;;;;;;;;;;;;;5066128;28;19927;-75
2023/04/20 09:19:50;;;;;;;;;;;;;;;;;;5065734;28;19936;-76
2023/04/20 09:22:36;;;;;;;;;;;;;;;;;;5068038;28;19913;-76
2023/04/20 09:25:23;;;;;;;;;;;;;;;;;;5060499;28;19920;-76
2023/04/20 09:28:10;;;;;;;;;;;;;;;;;;5065301;28;19923;-75
2023/04/20 09:30:56;;;;;;;;;;;;;;;;;;5068049;28;19928;-75
2023/04/20 09:33:43;;;;;;;;;;;;;;;;;;5086791;28;19928;-75
2023/04/20 09:36:30;;;;;;;;;;;;;;;;;;5086998;28;19927;-75
2023/04/20 09:39:16;;;;;;;;;;;;;;;;;;5085556;28;19942;-76
2023/04/20 09:42:03;;;;;;;;;;;;;;;;;;5082907;28;19930;-75
2023/04/20 09:44:49;;;;;;;;;;;;;;;;;;5087439;28;19938;-76
2023/04/20 09:47:40;;;;;;;;;;;;;;;;;;5087560;28;19916;-76
2023/04/20 09:50:27;;;;;;;;;;;;;;;;;;5086493;28;19922;-76
2023/04/20 09:53:13;;;;;;;;;;;;;;;;;;5085867;28;19954;-76
2023/04/20 09:56:00;;;;;;;;;;;;;;;;;;5086578;28;19922;-76
2023/04/20 09:58:46;;;;;;;;;;;;;;;;;;5084804;28;19920;-75
2023/04/20 10:01:34;;;;;;;;;;;;;;;;;;5085931;28;19920;-76
2023/04/20 10:04:21;;;;;;;;;;;;;;;;;;5085591;28;19916;-76
2023/04/20 10:07:07;;;;;;;;;;;;;;;;;;5071655;28;19921;-76
2023/04/20 10:09:54;;;;;;;;;;;;;;;;;;5084962;28;19912;-76
2023/04/20 10:12:40;;;;;;;;;;;;;;;;;;5086126;28;19923;-75
2023/04/20 10:15:27;;;;;;;;;;;;;;;;;;5087785;28;19916;-74
2023/04/20 10:18:15;;;;;;;;;;;;;;;;;;5076421;28;19946;-75
2023/04/20 10:21:01;;;;;;;;;;;;;;;;;;5056491;28;19927;-75
2023/04/20 10:23:49;;;;;;;;;;;;;;;;;;5082736;28;19916;-76
2023/04/20 10:26:36;;;;;;;;;;;;;;;;;;5091703;28;19923;-76
2023/04/20 10:29:23;;;;;;;;;;;;;;;;;;5084641;28;20398;-75
2023/04/20 10:32:10;;;;;;;;;;;;;;;;;;5076394;28;19934;-75
2023/04/20 10:34:56;;;;;;;;;;;;;;;;;;5059811;28;19923;-76
2023/04/20 10:37:43;;;;;;;;;;;;;;;;;;5064224;28;20459;-75
2023/04/20 10:40:29;;;;;;;;;;;;;;;;;;5064918;28;19923;-75
2023/04/20 10:43:16;;;;;;;;;;;;;;;;;;5063821;28;19917;-75
2023/04/20 10:46:02;;;;;;;;;;;;;;;;;;5085075;28;19978;-76
2023/04/20 10:48:49;;;;;;;;;;;;;;;;;;5069255;28;20407;-75
2023/04/20 10:51:35;;;;;;;;;;;;;;;;;;5085686;28;19924;-76
2023/04/20 10:54:22;;;;;;;;;;;;;;;;;;5074524;28;20496;-76
2023/04/20 10:57:08;;;;;;;;;;;;;;;;;;5085467;28;19916;-74
2023/04/20 10:59:55;;;;;;;;;;;;;;;;;;5083551;28;19924;-75
2023/04/20 11:02:41;;;;;;;;;;;;;;;;;;5078748;28;19926;-76
2023/04/20 11:05:28;;;;;;;;;;;;;;;;;;5061317;28;19926;-76
2023/04/20 11:08:14;;;;;;;;;;;;;;;;;;5084593;28;19922;-76
2023/04/20 11:11:01;;;;;;;;;;;;;;;;;;5083547;28;19955;-76
2023/04/20 11:13:47;;;;;;;;;;;;;;;;;;5085014;28;20367;-76
2023/04/20 11:16:34;;;;;;;;;;;;;;;;;;5081876;28;20515;-75
2023/04/20 11:19:21;;;;;;;;;;;;;;;;;;5099122;28;20320;-74
2023/04/20 11:22:08;;;;;;;;;;;;;;;;;;5088299;28;19920;-79
2023/04/20 11:24:54;;;;;;;;;;;;;;;;;;5084104;28;19922;-75
2023/04/20 11:27:41;;;;;;;;;;;;;;;;;;5084758;28;19916;-75
2023/04/20 11:30:28;;;;;;;;;;;;;;;;;;5084984;28;19922;-75
2023/04/20 11:33:16;;;;;;;;;;;;;;;;;;5059405;28;20402;-75
2023/04/20 11:36:02;;;;;;;;;;;;;;;;;;5082336;28;20596;-75
2023/04/20 11:38:49;;;;;;;;;;;;;;;;;;5083754;28;19924;-75
2023/04/20 11:41:37;;;;;;;;;;;;;;;;;;5084525;28;19927;-74
2023/04/20 11:44:24;;;;;;;;;;;;;;;;;;5084592;28;19919;-75
2023/04/20 11:47:11;;;;;;;;;;;;;;;;;;5083787;28;19924;-75
2023/04/20 11:49:57;;;;;;;;;;;;;;;;;;5056390;28;19920;-75
2023/04/20 11:52:44;;;;;;;;;;;;;;;;;;5061913;28;20295;-75
2023/04/20 11:55:30;;;;;;;;;;;;;;;;;;5084562;28;19927;-76
2023/04/20 11:58:17;;;;;;;;;;;;;;;;;;5082689;28;19928;-76
2023/04/20 12:01:04;;;;;;;;;;;;;;;;;;5087555;28;19930;-76
2023/04/20 12:03:50;;;;;;;;;;;;;;;;;;5075159;28;19959;-76
2023/04/20 12:06:37;;;;;;;;;;;;;;;;;;5084291;28;20384;-76
2023/04/20 12:09:23;;;;;;;;;;;;;;;;;;5082870;28;19926;-76
2023/04/20 12:12:10;;;;;;;;;;;;;;;;;;5065795;28;19920;-76
2023/04/20 12:14:56;;;;;;;;;;;;;;;;;;5074850;28;19912;-76
2023/04/20 12:17:43;;;;;;;;;;;;;;;;;;5083888;28;19972;-77
2023/04/20 12:20:29;;;;;;;;;;;;;;;;;;5084927;28;19935;-76
2023/04/20 12:23:16;;;;;;;;;;;;;;;;;;5083177;28;19922;-76
2023/04/20 12:26:03;;;;;;;;;;;;;;;;;;5083777;28;19919;-76
2023/04/20 12:28:49;;;;;;;;;;;;;;;;;;5083018;28;19916;-75
2023/04/20 12:31:36;;;;;;;;;;;;;;;;;;5085279;28;19955;-76
2023/04/20 12:34:22;;;;;;;;;;;;;;;;;;5084041;28;19920;-76
2023/04/20 12:37:09;;;;;;;;;;;;;;;;;;5084338;28;19920;-76
2023/04/20 12:39:56;;;;;;;;;;;;;;;;;;5076178;28;19931;-76
2023/04/20 12:42:42;;;;;;;;;;;;;;;;;;5082909;28;19923;-76
2023/04/20 12:45:29;;;;;;;;;;;;;;;;;;5084365;28;19912;-76
2023/04/20 12:48:16;;;;;;;;;;;;;;;;;;5082096;28;19916;-76
2023/04/20 12:51:02;;;;;;;;;;;;;;;;;;5065702;28;19919;-76
2023/04/20 12:53:49;;;;;;;;;;;;;;;;;;5086471;28;20282;-76
2023/04/20 12:56:35;;;;;;;;;;;;;;;;;;5091038;28;19927;-76
2023/04/20 12:59:22;;;;;;;;;;;;;;;;;;5079144;28;19932;-76
2023/04/20 13:02:09;;;;;;;;;;;;;;;;;;5084908;28;19920;-76
2023/04/20 13:04:55;;;;;;;;;;;;;;;;;;5086483;28;19938;-76
2023/04/20 13:07:42;;;;;;;;;;;;;;;;;;5076452;28;19932;-75
2023/04/20 13:10:28;;;;;;;;;;;;;;;;;;5079046;28;19923;-76
2023/04/20 13:13:15;;;;;;;;;;;;;;;;;;5086359;28;19967;-76
2023/04/20 13:16:01;;;;;;;;;;;;;;;;;;5083247;28;19922;-76
2023/04/20 13:18:48;;;;;;;;;;;;;;;;;;5090467;28;19931;-76
2023/04/20 13:21:34;;;;;;;;;;;;;;;;;;5082134;28;19919;-76
2023/04/20 13:24:21;;;;;;;;;;;;;;;;;;5084299;28;19916;-75
2023/04/20 13:27:07;;;;;;;;;;;;;;;;;;5081887;28;19950;-75
2023/04/20 13:29:54;;;;;;;;;;;;;;;;;;5083139;28;19918;-76
2023/04/20 13:32:40;;;;;;;;;;;;;;;;;;5084543;28;19932;-76
2023/04/20 13:35:27;;;;;;;;;;;;;;;;;;5086918;28;19935;-75
2023/04/20 13:38:13;;;;;;;;;;;;;;;;;;5083917;28;19935;-76
2023/04/20 13:41:00;;;;;;;;;;;;;;;;;;5088776;28;20307;-76
2023/04/20 13:43:46;;;;;;;;;;;;;;;;;;5071244;28;20298;-75
2023/04/20 13:46:33;;;;;;;;;;;;;;;;;;5091021;28;19920;-76
2023/04/20 13:49:21;;;;;;;;;;;;;;;;;;5069979;28;19916;-75
2023/04/20 13:52:07;;;;;;;;;;;;;;;;;;5081033;28;19920;-75
2023/04/20 13:54:54;;;;;;;;;;;;;;;;;;5084230;28;19919;-77
2023/04/20 13:57:40;;;;;;;;;;;;;;;;;;5080586;28;19927;-76
2023/04/20 14:00:27;;;;;;;;;;;;;;;;;;5071018;28;19916;-76
2023/04/20 14:03:14;;;;;;;;;;;;;;;;;;5086224;28;20385;-76
2023/04/20 14:06:00;;;;;;;;;;;;;;;;;;5088548;28;19916;-76
2023/04/20 14:08:47;;;;;;;;;;;;;;;;;;5084587;28;19920;-76
2023/04/20 14:11:33;;;;;;;;;;;;;;;;;;5085724;28;19912;-76
2023/04/20 14:14:20;;;;;;;;;;;;;;;;;;5083787;28;20462;-75
2023/04/20 14:17:06;;;;;;;;;;;;;;;;;;5079823;28;19923;-76
2023/04/20 14:19:53;;;;;;;;;;;;;;;;;;5077014;28;19928;-76
2023/04/20 14:22:39;;;;;;;;;;;;;;;;;;5086328;28;19946;-75
2023/04/20 14:25:26;;;;;;;;;;;;;;;;;;5093892;28;19916;-74
2023/04/20 14:28:12;;;;;;;;;;;;;;;;;;5085610;28;19935;-75
2023/04/20 14:30:59;;;;;;;;;;;;;;;;;;5075667;28;19920;-75
2023/04/20 14:33:46;;;;;;;;;;;;;;;;;;5083903;28;19950;-75
2023/04/20 14:36:32;;;;;;;;;;;;;;;;;;5084626;28;19916;-75
2023/04/20 14:39:22;;;;;;;;;;;;;;;;;;5085423;28;20386;-75
2023/04/20 14:42:08;;;;;;;;;;;;;;;;;;5082730;28;19920;-76
2023/04/20 14:44:55;;;;;;;;;;;;;;;;;;5076819;28;19916;-75
2023/04/20 14:47:41;;;;;;;;;;;;;;;;;;5085612;28;19930;-76
2023/04/20 14:50:28;;;;;;;;;;;;;;;;;;5085638;28;19916;-74
2023/04/20 14:53:14;;;;;;;;;;;;;;;;;;5069059;28;19920;-76
2023/04/20 14:56:01;;;;;;;;;;;;;;;;;;5075448;28;20286;-75
2023/04/20 14:58:47;;;;;;;;;;;;;;;;;;5082561;28;19931;-76
2023/04/20 15:01:34;;;;;;;;;;;;;;;;;;5084941;28;19916;-75
2023/04/20 15:04:20;;;;;;;;;;;;;;;;;;5077436;28;19927;-76
2023/04/20 15:07:07;;;;;;;;;;;;;;;;;;5085070;28;19984;-76
2023/04/20 15:09:53;;;;;;;;;;;;;;;;;;5085840;28;19927;-76
2023/04/20 15:12:40;;;;;;;;;;;;;;;;;;5087407;28;19922;-76
2023/04/20 15:15:26;;;;;;;;;;;;;;;;;;5075899;28;20375;-75
2023/04/20 15:18:13;;;;;;;;;;;;;;;;;;5084492;28;20329;-75
2023/04/20 15:20:59;;;;;;;;;;;;;;;;;;5084035;28;19920;-76
2023/04/20 15:23:46;;;;;;;;;;;;;;;;;;5083867;28;19916;-74
2023/04/20 15:26:32;;;;;;;;;;;;;;;;;;5086014;28;20318;-75
2023/04/20 15:29:19;;;;;;;;;;;;;;;;;;5087495;28;19920;-75
2023/04/20 15:32:05;;;;;;;;;;;;;;;;;;5083117;28;20053;-76
2023/04/20 15:34:52;;;;;;;;;;;;;;;;;;5075027;28;19922;-75
2023/04/20 15:37:39;;;;;;;;;;;;;;;;;;5084198;28;19923;-76
2023/04/20 15:40:26;;;;;;;;;;;;;;;;;;5085420;28;19935;-76
2023/04/20 15:43:12;;;;;;;;;;;;;;;;;;5084057;28;19916;-75
2023/04/20 15:45:59;;;;;;;;;;;;;;;;;;5084547;28;19927;-76
2023/04/20 15:48:45;;;;;;;;;;;;;;;;;;5083635;28;20276;-75
2023/04/20 15:51:32;;;;;;;;;;;;;;;;;;5070550;28;19916;-75
2023/04/20 15:54:22;;;;;;;;;;;;;;;;;;5072308;28;19920;-75
2023/04/20 15:57:08;;;;;;;;;;;;;;;;;;5084350;28;19920;-76
2023/04/20 15:59:55;;;;;;;;;;;;;;;;;;5084564;28;19932;-76
2023/04/20 16:02:41;;;;;;;;;;;;;;;;;;5079530;28;19916;-76
2023/04/20 16:05:28;;;;;;;;;;;;;;;;;;5073302;28;19923;-76
2023/04/20 16:08:17;;;;;;;;;;;;;;;;;;5067962;28;19920;-75
2023/04/20 16:11:04;;;;;;;;;;;;;;;;;;5083112;28;20324;-76
2023/04/20 16:13:50;;;;;;;;;;;;;;;;;;5089337;28;20429;-76
2023/04/20 16:16:37;;;;;;;;;;;;;;;;;;5089678;28;19912;-75
2023/04/20 16:19:23;;;;;;;;;;;;;;;;;;5075794;28;20421;-75
2023/04/20 16:22:11;;;;;;;;;;;;;;;;;;5077603;28;19924;-75
2023/04/20 16:24:57;;;;;;;;;;;;;;;;;;5074707;28;19920;-75
2023/04/20 16:27:44;;;;;;;;;;;;;;;;;;5085284;28;19981;-75
2023/04/20 16:30:32;;;;;;;;;;;;;;;;;;5085460;28;20039;-75
2023/04/20 16:33:18;;;;;;;;;;;;;;;;;;5067280;28;19935;-76
2023/04/20 16:36:05;;;;;;;;;;;;;;;;;;5086001;28;19916;-75
2023/04/20 16:38:51;;;;;;;;;;;;;;;;;;5083428;28;19928;-76
2023/04/20 16:41:38;;;;;;;;;;;;;;;;;;5087241;28;19922;-75
2023/04/20 16:44:24;;;;;;;;;;;;;;;;;;5079688;28;19928;-76
2023/04/20 16:47:11;;;;;;;;;;;;;;;;;;5082186;28;19916;-76
2023/04/20 16:49:57;;;;;;;;;;;;;;;;;;5084363;28;19923;-76
2023/04/20 16:52:43;;;;;;;;;;;;;;;;;;5066776;28;19936;-75
2023/04/20 16:55:33;;;;;;;;;;;;;;;;;;5085580;28;19920;-75
2023/04/20 16:58:20;;;;;;;;;;;;;;;;;;5084554;28;19939;-76
2023/04/20 17:01:07;;;;;;;;;;;;;;;;;;5084398;28;20553;-75
2023/04/20 17:03:53;;;;;;;;;;;;;;;;;;5076783;28;19930;-75
2023/04/20 17:06:40;;;;;;;;;;;;;;;;;;5083581;28;19958;-74
2023/04/20 17:09:26;;;;;;;;;;;;;;;;;;5085686;28;19920;-76
2023/04/20 17:12:13;;;;;;;;;;;;;;;;;;5076531;28;19923;-76
2023/04/20 17:14:59;;;;;;;;;;;;;;;;;;5068694;28;19978;-75
2023/04/20 17:17:46;;;;;;;;;;;;;;;;;;5084279;28;19926;-75
2023/04/20 17:20:32;;;;;;;;;;;;;;;;;;5053378;28;19924;-76
2023/04/20 17:23:19;;;;;;;;;;;;;;;;;;5085864;28;19916;-75
2023/04/20 17:26:05;;;;;;;;;;;;;;;;;;5084717;28;19920;-76
2023/04/20 17:28:52;;;;;;;;;;;;;;;;;;5075906;28;19916;-76
2023/04/20 17:31:39;;;;;;;;;;;;;;;;;;5078611;28;19928;-76
2023/04/20 17:34:27;;;;;;;;;;;;;;;;;;5081007;28;19920;-76
2023/04/20 17:37:13;;;;;;;;;;;;;;;;;;5073763;28;19916;-77
2023/04/20 17:40:00;;;;;;;;;;;;;;;;;;5084302;28;19947;-75
2023/04/20 17:42:46;;;;;;;;;;;;;;;;;;5078483;28;19920;-76
2023/04/20 17:45:33;;;;;;;;;;;;;;;;;;5085701;28;20409;-75
2023/04/20 17:48:19;;;;;;;;;;;;;;;;;;5077456;28;20010;-75
2023/04/20 17:51:06;;;;;;;;;;;;;;;;;;5074682;28;19923;-75
2023/04/20 17:53:52;;;;;;;;;;;;;;;;;;5082278;28;20379;-75
2023/04/20 17:56:39;;;;;;;;;;;;;;;;;;5084145;28;19923;-74
2023/04/20 17:59:25;;;;;;;;;;;;;;;;;;5082531;28;19935;-75
2023/04/20 18:02:12;;;;;;;;;;;;;;;;;;5084369;28;19912;-76
2023/04/20 18:04:59;;;;;;;;;;;;;;;;;;5082068;28;19920;-75
2023/04/20 18:07:46;;;;;;;;;;;;;;;;;;5083375;28;19916;-74
2023/04/20 18:10:32;;;;;;;;;;;;;;;;;;5074472;28;19916;-75
2023/04/20 18:13:19;;;;;;;;;;;;;;;;;;5081651;28;20657;-76
2023/04/20 18:16:06;;;;;;;;;;;;;;;;;;5082104;28;20644;-76
2023/04/20 18:18:53;;;;;;;;;;;;;;;;;;5074375;28;19928;-76
2023/04/20 18:21:39;;;;;;;;;;;;;;;;;;5067736;28;19923;-76
2023/04/20 18:24:26;;;;;;;;;;;;;;;;;;5084773;28;20560;-76
2023/04/20 18:27:13;;;;;;;;;;;;;;;;;;5075840;28;20706;-74
2023/04/20 18:29:59;;;;;;;;;;;;;;;;;;5072570;28;19927;-76
2023/04/20 18:32:46;;;;;;;;;;;;;;;;;;5085805;28;20628;-76
2023/04/20 18:35:32;;;;;;;;;;;;;;;;;;5083658;28;19927;-76
2023/04/20 18:38:19;;;;;;;;;;;;;;;;;;5082565;28;19912;-77
2023/04/20 18:41:05;;;;;;;;;;;;;;;;;;5072269;28;20394;-83
2023/04/20 18:43:52;;;;;;;;;;;;;;;;;;5086265;28;19941;-85
2023/04/20 18:46:38;;;;;;;;;;;;;;;;;;5084308;28;20269;-82
2023/04/20 18:49:25;;;;;;;;;;;;;;;;;;5067751;28;19927;-81
2023/04/20 18:52:12;;;;;;;;;;;;;;;;;;5078001;28;19921;-85
2023/04/20 18:54:59;;;;;;;;;;;;;;;;;;5082230;28;19916;-85
2023/04/20 18:57:45;;;;;;;;;;;;;;;;;;5088465;28;19923;-83